Time;durP1;ratioP1;P1;durP2;ratioP2;P2;SDS_P1;SDS_P2;PMS_P1;PMS_P2;Temp;Humidity;BMP_temperature;BMP_pressure;BME280_temperature;BME280_humidity;BME280_pressure;Samples;Min_cycle;Max_cycle;Signal;HPM_P1;HPM_P2
2021/11/25 00:00:22;;;;;;;10.60;9.30;;;7.00;99.90;;;;;;4890380;29;20248;-77
2021/11/25 00:02:51;;;;;;;13.83;10.43;;;7.10;99.90;;;;;;4889630;29;20225;-78
2021/11/25 00:05:20;;;;;;;11.87;10.40;;;7.10;99.90;;;;;;4890221;29;20245;-78
2021/11/25 00:07:48;;;;;;;11.20;10.03;;;7.10;99.90;;;;;;4889776;29;20245;-77
2021/11/25 00:10:17;;;;;;;12.70;9.60;;;7.00;99.90;;;;;;4890914;29;20245;-78
2021/11/25 00:12:45;;;;;;;11.70;9.80;;;7.10;99.90;;;;;;4890489;29;20772;-77
2021/11/25 00:15:14;;;;;;;12.97;10.47;;;7.20;99.90;;;;;;4890770;29;20241;-78
2021/11/25 00:17:42;;;;;;;12.07;10.20;;;7.30;99.90;;;;;;4890147;29;20237;-78
2021/11/25 00:20:12;;;;;;;12.60;11.30;;;7.10;99.90;;;;;;4890961;29;20245;-78
2021/11/25 00:22:43;;;;;;;12.20;10.90;;;7.10;99.90;;;;;;4889335;29;20241;-77
2021/11/25 00:25:11;;;;;;;12.73;10.80;;;7.00;99.90;;;;;;4890534;29;20244;-78
2021/11/25 00:27:40;;;;;;;12.20;10.90;;;6.90;99.90;;;;;;4890384;29;20300;-77
2021/11/25 00:30:13;;;;;;;12.80;10.87;;;6.90;99.90;;;;;;4893891;29;20690;-77
2021/11/25 00:32:42;;;;;;;11.80;10.53;;;6.90;99.90;;;;;;4890343;29;20697;-78
2021/11/25 00:35:11;;;;;;;13.00;11.60;;;6.90;99.90;;;;;;4890782;29;20586;-77
2021/11/25 00:37:41;;;;;;;13.07;11.27;;;6.90;99.90;;;;;;4890184;29;20296;-77
2021/11/25 00:40:12;;;;;;;13.80;12.40;;;7.00;99.90;;;;;;4891039;29;20942;-77
2021/11/25 00:42:41;;;;;;;12.43;10.83;;;7.00;99.90;;;;;;4888909;29;20839;-78
2021/11/25 00:45:11;;;;;;;14.67;12.57;;;7.00;99.90;;;;;;4890162;29;20241;-78
2021/11/25 00:47:39;;;;;;;13.43;12.03;;;6.90;99.90;;;;;;4890550;29;20327;-78
2021/11/25 00:50:10;;;;;;;16.47;12.47;;;6.90;99.90;;;;;;4890777;29;20634;-78
2021/11/25 00:52:42;;;;;;;13.97;11.73;;;6.80;99.90;;;;;;4889818;29;20348;-78
2021/11/25 00:55:11;;;;;;;15.03;12.67;;;6.90;99.90;;;;;;4890489;29;20265;-77
2021/11/25 00:57:39;;;;;;;14.50;11.97;;;6.80;99.90;;;;;;4890266;29;20255;-78
2021/11/25 01:00:11;;;;;;;15.00;12.90;;;6.80;99.90;;;;;;4890320;29;20347;-77
2021/11/25 01:02:40;;;;;;;14.53;12.87;;;6.80;99.90;;;;;;4889421;29;20241;-77
2021/11/25 01:05:09;;;;;;;13.37;11.83;;;6.80;99.90;;;;;;4889951;29;20649;-77
2021/11/25 01:07:37;;;;;;;14.47;12.97;;;6.80;99.90;;;;;;4890284;29;20241;-77
2021/11/25 01:10:10;;;;;;;15.70;13.77;;;6.80;99.90;;;;;;4890606;29;20240;-77
2021/11/25 01:12:40;;;;;;;15.27;13.17;;;6.80;99.90;;;;;;4889959;29;20255;-78
2021/11/25 01:15:10;;;;;;;14.70;13.20;;;6.80;99.90;;;;;;4890291;29;20245;-78
2021/11/25 01:17:40;;;;;;;15.33;13.43;;;6.80;99.90;;;;;;4890261;29;21523;-77
2021/11/25 01:20:11;;;;;;;15.90;13.87;;;6.80;99.90;;;;;;4892224;29;20233;-77
2021/11/25 01:22:39;;;;;;;15.77;13.27;;;6.70;99.90;;;;;;4892106;29;20272;-77
2021/11/25 01:25:10;;;;;;;15.90;13.73;;;6.90;99.90;;;;;;4892340;29;20252;-78
2021/11/25 01:27:39;;;;;;;16.13;14.37;;;7.00;99.90;;;;;;4893612;29;20709;-77
2021/11/25 01:30:09;;;;;;;16.40;14.53;;;6.90;99.90;;;;;;4894259;29;20253;-77
2021/11/25 01:32:37;;;;;;;16.23;13.97;;;6.90;99.90;;;;;;4893155;29;20276;-77
2021/11/25 01:35:07;;;;;;;15.60;13.90;;;6.80;99.90;;;;;;4892992;29;20245;-78
2021/11/25 01:37:36;;;;;;;15.60;13.33;;;6.80;99.90;;;;;;4893331;29;20241;-77
2021/11/25 01:40:06;;;;;;;16.63;14.70;;;6.80;99.90;;;;;;4881465;29;20328;-77
2021/11/25 01:42:40;;;;;;;16.77;14.93;;;6.80;99.90;;;;;;4892723;29;20300;-78
2021/11/25 01:45:10;;;;;;;18.17;15.30;;;6.80;99.90;;;;;;4893329;29;20282;-78
2021/11/25 01:47:43;;;;;;;17.63;14.53;;;6.70;99.90;;;;;;4893228;29;21516;-78
2021/11/25 01:50:12;;;;;;;17.33;15.03;;;6.70;99.90;;;;;;4893774;29;20233;-77
2021/11/25 01:52:41;;;;;;;18.90;15.37;;;6.80;99.90;;;;;;4892517;29;20818;-77
2021/11/25 01:55:10;;;;;;;16.20;13.83;;;6.80;99.90;;;;;;4893046;29;20233;-77
2021/11/25 01:57:40;;;;;;;17.20;14.77;;;6.80;99.90;;;;;;4893216;29;20805;-78
2021/11/25 02:00:14;;;;;;;19.43;16.37;;;7.10;99.90;;;;;;4892963;29;20706;-78
2021/11/25 02:02:43;;;;;;;18.77;16.50;;;7.00;99.90;;;;;;4890692;29;20599;-77
2021/11/25 02:05:11;;;;;;;20.67;16.30;;;6.90;99.90;;;;;;4892511;29;20241;-78
2021/11/25 02:07:40;;;;;;;18.30;15.93;;;6.80;99.90;;;;;;4892622;29;20292;-78
2021/11/25 02:10:10;;;;;;;18.77;16.03;;;6.70;99.90;;;;;;4892744;29;20335;-77
2021/11/25 02:12:40;;;;;;;17.23;14.70;;;6.70;99.90;;;;;;4892125;29;20236;-78
2021/11/25 02:15:10;;;;;;;19.93;17.10;;;6.80;99.90;;;;;;4894810;29;20710;-78
2021/11/25 02:17:39;;;;;;;21.13;16.47;;;6.70;99.90;;;;;;4892453;29;20986;-77
2021/11/25 02:20:09;;;;;;;20.20;16.03;;;6.70;99.90;;;;;;4892568;29;20245;-77
2021/11/25 02:22:40;;;;;;;19.57;15.60;;;6.80;99.90;;;;;;4891324;29;20242;-77
2021/11/25 02:25:11;;;;;;;18.53;16.13;;;6.70;99.90;;;;;;4892455;29;20312;-77
2021/11/25 02:27:41;;;;;;;19.50;15.10;;;6.70;99.90;;;;;;4892716;29;20300;-77
2021/11/25 02:30:11;;;;;;;21.97;17.90;;;6.80;99.90;;;;;;4892260;29;20243;-77
2021/11/25 02:32:41;;;;;;;21.13;17.13;;;6.70;99.90;;;;;;4891612;29;20331;-77
2021/11/25 02:35:15;;;;;;;19.80;17.17;;;6.70;99.90;;;;;;4891963;29;20273;-77
2021/11/25 02:37:45;;;;;;;21.07;16.97;;;6.60;99.90;;;;;;4891570;29;20320;-78
2021/11/25 02:40:16;;;;;;;18.90;15.57;;;6.60;99.90;;;;;;4892443;29;20256;-77
2021/11/25 02:42:44;;;;;;;22.33;16.97;;;6.60;99.90;;;;;;4890299;29;20241;-77
2021/11/25 02:45:12;;;;;;;21.33;17.57;;;6.60;99.90;;;;;;4891898;29;20237;-77
2021/11/25 02:47:41;;;;;;;18.20;15.60;;;6.60;99.90;;;;;;4892144;29;20257;-77
2021/11/25 02:50:09;;;;;;;19.73;17.10;;;6.60;99.90;;;;;;4892105;29;20300;-78
2021/11/25 02:52:40;;;;;;;21.17;16.27;;;6.50;99.90;;;;;;4891002;29;20249;-77
2021/11/25 02:55:10;;;;;;;21.63;16.63;;;6.50;99.90;;;;;;4892016;29;20244;-77
2021/11/25 02:57:40;;;;;;;22.07;16.27;;;6.50;99.90;;;;;;4892077;29;20319;-77
2021/11/25 03:00:31;;;;;;;20.17;16.80;;;6.50;99.90;;;;;;4892183;29;20316;-77
2021/11/25 03:03:02;;;;;;;21.60;17.37;;;6.40;99.90;;;;;;4890798;29;20383;-78
2021/11/25 03:05:31;;;;;;;20.80;15.67;;;6.50;99.90;;;;;;4890879;29;20239;-77
2021/11/25 03:08:01;;;;;;;22.43;17.90;;;6.50;99.90;;;;;;4891847;29;20261;-77
2021/11/25 03:10:35;;;;;;;21.13;16.37;;;6.50;99.90;;;;;;4891597;29;20320;-77
2021/11/25 03:13:04;;;;;;;21.40;16.50;;;6.40;99.90;;;;;;4891474;29;20241;-78
2021/11/25 03:15:33;;;;;;;19.50;16.17;;;6.40;99.90;;;;;;4891107;29;21344;-77
2021/11/25 03:18:01;;;;;;;21.80;16.90;;;6.40;99.90;;;;;;4891005;29;20324;-77
2021/11/25 03:20:30;;;;;;;25.30;17.80;;;6.40;99.90;;;;;;4891235;29;20320;-78
2021/11/25 03:22:58;;;;;;;21.83;17.37;;;6.40;99.90;;;;;;4889939;29;20229;-77
2021/11/25 03:25:28;;;;;;;22.70;17.23;;;6.40;99.90;;;;;;4891133;29;20737;-78
2021/11/25 03:27:57;;;;;;;22.77;17.77;;;6.30;99.90;;;;;;4892873;29;20233;-77
2021/11/25 03:30:25;;;;;;;22.37;16.80;;;6.30;99.90;;;;;;4891322;29;20242;-78
2021/11/25 03:32:54;;;;;;;21.33;17.07;;;6.30;99.90;;;;;;4891168;29;20256;-77
2021/11/25 03:35:22;;;;;;;23.67;18.07;;;6.30;99.90;;;;;;4891249;29;20237;-77
2021/11/25 03:37:51;;;;;;;22.23;17.20;;;6.40;99.90;;;;;;4876759;29;20241;-77
2021/11/25 03:40:19;;;;;;;22.60;17.37;;;6.40;99.90;;;;;;4893883;29;20305;-78
2021/11/25 03:42:47;;;;;;;21.30;17.30;;;6.30;99.90;;;;;;4889914;29;20264;-77
2021/11/25 03:45:17;;;;;;;21.17;16.00;;;6.30;99.90;;;;;;4891157;29;20347;-77
2021/11/25 03:47:45;;;;;;;25.57;18.43;;;6.30;99.90;;;;;;4891099;29;20297;-77
2021/11/25 03:50:15;;;;;;;21.93;17.80;;;6.30;99.90;;;;;;4889634;29;20268;-78
2021/11/25 03:52:43;;;;;;;23.70;18.27;;;6.40;99.90;;;;;;4890030;29;20293;-77
2021/11/25 03:55:14;;;;;;;22.30;17.70;;;6.40;99.90;;;;;;4887374;29;20229;-77
2021/11/25 03:57:42;;;;;;;23.83;17.33;;;6.30;99.90;;;;;;4897064;29;20296;-77
2021/11/25 04:00:14;;;;;;;20.47;15.70;;;6.20;99.90;;;;;;4891237;29;20263;-78
2021/11/25 04:02:45;;;;;;;22.97;18.50;;;6.30;99.90;;;;;;4889154;29;20365;-78
2021/11/25 04:05:14;;;;;;;23.97;17.80;;;6.20;99.90;;;;;;4890148;29;20237;-78
2021/11/25 04:07:43;;;;;;;23.90;18.17;;;6.20;99.90;;;;;;4890846;29;20691;-78
2021/11/25 04:10:13;;;;;;;27.23;17.53;;;6.10;99.90;;;;;;4891583;29;20725;-78
2021/11/25 04:12:41;;;;;;;22.17;17.60;;;6.10;99.90;;;;;;4890387;29;20289;-77
2021/11/25 04:15:11;;;;;;;23.87;17.10;;;6.10;99.90;;;;;;4890837;29;20273;-77
2021/11/25 04:17:39;;;;;;;21.07;16.63;;;6.10;99.90;;;;;;4890799;29;20281;-77
2021/11/25 04:20:11;;;;;;;23.27;17.93;;;6.10;99.90;;;;;;4890657;29;20323;-77
2021/11/25 04:22:39;;;;;;;22.83;17.73;;;6.10;99.90;;;;;;4889691;29;20714;-77
2021/11/25 04:25:10;;;;;;;24.10;18.43;;;6.10;99.90;;;;;;4890675;29;20674;-77
2021/11/25 04:27:38;;;;;;;24.10;18.17;;;6.10;99.90;;;;;;4890534;29;20316;-77
2021/11/25 04:30:10;;;;;;;22.23;17.50;;;6.20;99.90;;;;;;4891008;29;20917;-77
2021/11/25 04:35:32;;;;;;;23.00;17.67;;;6.10;99.90;;;;;;4887875;29;20474;-77
2021/11/25 04:38:02;;;;;;;27.07;19.33;;;6.10;99.90;;;;;;4890290;29;20255;-77
2021/11/25 04:40:34;;;;;;;25.20;18.90;;;6.00;99.90;;;;;;4890419;29;20245;-77
2021/11/25 04:43:03;;;;;;;25.20;18.83;;;6.00;99.90;;;;;;4888893;29;20245;-78
2021/11/25 04:45:32;;;;;;;25.43;19.80;;;6.00;99.90;;;;;;4889821;29;20249;-77
2021/11/25 04:48:00;;;;;;;27.67;19.83;;;5.90;99.90;;;;;;4890604;29;20235;-77
2021/11/25 04:50:30;;;;;;;25.07;18.67;;;5.90;99.90;;;;;;4890442;29;20240;-77
2021/11/25 04:53:00;;;;;;;25.47;18.30;;;5.90;99.90;;;;;;4890445;29;20580;-78
2021/11/25 04:55:29;;;;;;;25.30;19.07;;;5.90;99.90;;;;;;4893635;29;20252;-77
2021/11/25 04:57:57;;;;;;;24.47;18.37;;;5.90;99.90;;;;;;4894209;29;20516;-77
2021/11/25 05:00:26;;;;;;;27.23;19.03;;;5.90;99.90;;;;;;4893927;29;20237;-77
2021/11/25 05:02:54;;;;;;;24.90;19.33;;;6.00;99.90;;;;;;4892111;29;21240;-78
2021/11/25 05:05:23;;;;;;;27.23;19.70;;;6.00;99.90;;;;;;4895605;29;20488;-78
2021/11/25 05:07:53;;;;;;;26.90;19.97;;;6.00;99.90;;;;;;4893506;29;20816;-77
2021/11/25 05:10:21;;;;;;;27.00;20.03;;;6.00;99.90;;;;;;4893804;29;20245;-77
2021/11/25 05:12:49;;;;;;;24.13;17.83;;;5.90;99.90;;;;;;4893393;29;20761;-77
2021/11/25 05:15:18;;;;;;;25.97;19.53;;;5.90;99.90;;;;;;4893332;29;20521;-77
2021/11/25 05:17:47;;;;;;;25.93;19.03;;;5.90;99.90;;;;;;4890204;29;20253;-77
2021/11/25 05:20:16;;;;;;;23.57;17.50;;;5.90;99.90;;;;;;4893766;29;20241;-77
2021/11/25 05:22:44;;;;;;;24.47;19.60;;;5.90;99.90;;;;;;4892170;29;20560;-77
2021/11/25 05:25:18;;;;;;;27.20;20.67;;;5.90;99.90;;;;;;4893487;29;20687;-77
2021/11/25 05:27:48;;;;;;;26.93;18.67;;;5.90;99.90;;;;;;4891492;29;20685;-77
2021/11/25 05:30:17;;;;;;;26.93;19.10;;;5.90;99.90;;;;;;4880037;29;20234;-77
2021/11/25 05:32:47;;;;;;;27.40;21.03;;;6.00;99.90;;;;;;4875912;29;20717;-77
2021/11/25 05:35:16;;;;;;;31.37;21.90;;;6.00;99.90;;;;;;4892626;29;20709;-77
2021/11/25 05:37:45;;;;;;;31.83;21.33;;;6.10;99.90;;;;;;4885844;29;20661;-77
2021/11/25 05:40:15;;;;;;;30.53;22.43;;;6.10;99.90;;;;;;4893479;29;20241;-78
2021/11/25 05:42:44;;;;;;;30.20;21.37;;;6.10;99.90;;;;;;4890313;29;20544;-78
2021/11/25 05:45:15;;;;;;;31.60;22.33;;;6.00;99.90;;;;;;4893377;29;20894;-77
2021/11/25 05:47:46;;;;;;;29.10;21.73;;;6.10;99.90;;;;;;4885403;29;20497;-77
2021/11/25 05:50:18;;;;;;;29.37;20.50;;;6.10;99.90;;;;;;4892284;29;20527;-77
2021/11/25 05:52:48;;;;;;;30.23;22.30;;;6.10;99.90;;;;;;4891381;29;20499;-78
2021/11/25 05:55:17;;;;;;;27.60;21.67;;;6.10;99.90;;;;;;4893101;29;20237;-78
2021/11/25 05:57:45;;;;;;;30.20;22.27;;;6.10;99.90;;;;;;4892198;29;20758;-77
2021/11/25 06:00:16;;;;;;;29.50;22.93;;;6.20;99.90;;;;;;4892816;29;20256;-78
2021/11/25 06:02:46;;;;;;;28.73;21.23;;;6.10;99.90;;;;;;4890087;29;20501;-77
2021/11/25 06:05:19;;;;;;;27.20;20.87;;;6.10;99.90;;;;;;4892980;29;20244;-77
2021/11/25 06:07:47;;;;;;;28.53;20.63;;;6.10;99.90;;;;;;4898721;29;20288;-77
2021/11/25 06:10:19;;;;;;;30.13;22.97;;;6.20;99.90;;;;;;4891953;29;20270;-77
2021/11/25 06:12:49;;;;;;;30.20;22.83;;;6.10;99.90;;;;;;4896981;29;20324;-78
2021/11/25 06:15:17;;;;;;;28.60;21.23;;;6.10;99.90;;;;;;4890171;29;20637;-77
2021/11/25 06:17:46;;;;;;;28.20;21.87;;;6.10;99.90;;;;;;4886602;29;20327;-78
2021/11/25 06:20:16;;;;;;;33.23;22.70;;;6.10;99.90;;;;;;4886466;29;21092;-77
2021/11/25 06:22:46;;;;;;;29.37;22.67;;;6.20;99.90;;;;;;4885437;29;20484;-78
2021/11/25 06:25:18;;;;;;;30.63;23.33;;;6.00;99.90;;;;;;4887320;29;20485;-78
2021/11/25 06:27:47;;;;;;;32.97;24.40;;;6.00;99.90;;;;;;4887575;29;20543;-78
2021/11/25 06:30:17;;;;;;;30.87;22.47;;;6.00;99.90;;;;;;4887806;29;20477;-78
2021/11/25 06:32:47;;;;;;;32.50;23.17;;;6.00;99.90;;;;;;4891352;29;20545;-77
2021/11/25 06:35:17;;;;;;;32.00;24.63;;;6.00;99.90;;;;;;4873897;29;20481;-78
2021/11/25 06:37:48;;;;;;;31.63;24.33;;;5.90;99.90;;;;;;4886702;29;20486;-78
2021/11/25 06:40:21;;;;;;;31.17;23.37;;;5.80;99.90;;;;;;4888549;29;20252;-77
2021/11/25 06:42:49;;;;;;;33.37;24.77;;;5.80;99.90;;;;;;4876694;29;20482;-77
2021/11/25 06:45:17;;;;;;;32.43;24.17;;;5.80;99.90;;;;;;4885756;29;20300;-78
2021/11/25 06:47:47;;;;;;;36.57;26.93;;;5.90;99.90;;;;;;4886314;29;21480;-77
2021/11/25 06:50:17;;;;;;;38.23;28.03;;;5.90;99.90;;;;;;4883452;29;20482;-77
2021/11/25 06:52:47;;;;;;;36.70;26.53;;;5.90;99.90;;;;;;4886264;29;20304;-78
2021/11/25 06:55:17;;;;;;;36.80;27.13;;;5.80;99.90;;;;;;4883234;29;20484;-78
2021/11/25 06:57:48;;;;;;;37.10;26.57;;;5.80;99.90;;;;;;4887562;29;20492;-78
2021/11/25 07:00:19;;;;;;;34.90;26.50;;;5.80;99.90;;;;;;4891088;29;21452;-78
2021/11/25 07:02:48;;;;;;;36.03;26.63;;;5.70;99.90;;;;;;4892249;29;20474;-79
2021/11/25 07:05:16;;;;;;;36.97;27.80;;;5.70;99.90;;;;;;4886612;29;20488;-78
2021/11/25 07:07:44;;;;;;;36.83;27.93;;;5.70;99.90;;;;;;4882562;29;20905;-78
2021/11/25 07:10:13;;;;;;;36.43;27.53;;;5.80;99.90;;;;;;4891393;29;21961;-78
2021/11/25 07:12:45;;;;;;;39.00;27.70;;;5.80;99.90;;;;;;4885897;29;20889;-78
2021/11/25 07:15:15;;;;;;;35.67;26.77;;;5.80;99.90;;;;;;4885725;29;21174;-79
2021/11/25 07:17:46;;;;;;;36.33;26.00;;;5.80;99.90;;;;;;4885428;29;21513;-78
2021/11/25 07:20:15;;;;;;;36.87;26.93;;;5.80;99.90;;;;;;4884008;29;20569;-78
2021/11/25 07:22:44;;;;;;;37.07;27.90;;;5.80;99.90;;;;;;4885546;29;20495;-78
2021/11/25 07:25:15;;;;;;;36.07;26.80;;;5.80;99.90;;;;;;4885758;29;20495;-78
2021/11/25 07:27:45;;;;;;;41.67;27.63;;;5.80;99.90;;;;;;4885842;29;20537;-78
2021/11/25 07:30:15;;;;;;;35.23;26.73;;;5.80;99.90;;;;;;4882717;29;20817;-78
2021/11/25 07:32:44;;;;;;;37.80;27.87;;;5.80;99.90;;;;;;4884354;29;20525;-78
2021/11/25 07:35:13;;;;;;;34.00;26.70;;;5.80;99.90;;;;;;4886593;29;20477;-78
2021/11/25 07:37:42;;;;;;;37.73;26.70;;;5.90;99.90;;;;;;4885400;29;20477;-78
2021/11/25 07:40:10;;;;;;;35.87;26.50;;;5.90;99.90;;;;;;4883929;29;20972;-79
2021/11/25 07:42:39;;;;;;;37.87;26.57;;;5.90;99.90;;;;;;4884761;29;20544;-79
2021/11/25 07:45:09;;;;;;;37.00;27.00;;;5.90;99.90;;;;;;4885826;29;20244;-78
2021/11/25 07:47:38;;;;;;;36.07;26.67;;;5.90;99.90;;;;;;4885796;29;20477;-78
2021/11/25 07:50:09;;;;;;;41.20;28.90;;;5.90;99.90;;;;;;4886039;29;20247;-78
2021/11/25 07:52:38;;;;;;;38.40;27.70;;;5.90;99.90;;;;;;4885138;29;20643;-78
2021/11/25 07:55:09;;;;;;;42.00;28.57;;;5.90;99.90;;;;;;4885357;29;20251;-78
2021/11/25 07:57:39;;;;;;;37.07;27.27;;;5.90;99.90;;;;;;4885750;29;20245;-78
2021/11/25 08:00:10;;;;;;;40.13;27.63;;;5.90;99.90;;;;;;4884446;29;20324;-78
2021/11/25 08:02:42;;;;;;;44.40;29.83;;;6.00;99.90;;;;;;4884766;29;20327;-78
2021/11/25 08:05:11;;;;;;;36.60;27.37;;;6.00;99.90;;;;;;4885828;29;20513;-78
2021/11/25 08:07:41;;;;;;;41.67;29.57;;;5.90;99.90;;;;;;4885832;29;20233;-77
2021/11/25 08:10:12;;;;;;;39.00;28.87;;;5.90;99.90;;;;;;4888849;29;20513;-79
2021/11/25 08:12:41;;;;;;;40.77;28.80;;;5.90;99.90;;;;;;4886146;29;20248;-77
2021/11/25 08:15:12;;;;;;;43.87;28.37;;;5.90;99.90;;;;;;4886021;29;20480;-79
2021/11/25 08:17:41;;;;;;;41.87;29.63;;;5.90;99.90;;;;;;4884642;29;20706;-78
2021/11/25 08:20:11;;;;;;;41.57;28.73;;;5.90;99.90;;;;;;4879497;29;20721;-78
2021/11/25 08:22:40;;;;;;;46.43;30.07;;;5.90;99.90;;;;;;4885117;29;20556;-77
2021/11/25 08:25:09;;;;;;;40.93;28.27;;;6.00;99.90;;;;;;4885775;29;20276;-78
2021/11/25 08:27:38;;;;;;;43.20;29.80;;;6.00;99.90;;;;;;4886117;29;20620;-78
2021/11/25 08:30:09;;;;;;;43.13;30.63;;;6.00;99.90;;;;;;4889245;29;20252;-78
2021/11/25 08:32:39;;;;;;;44.87;31.30;;;6.00;99.90;;;;;;4888794;29;20259;-78
2021/11/25 08:35:08;;;;;;;41.97;30.13;;;6.00;99.90;;;;;;4888163;29;20488;-79
2021/11/25 08:37:39;;;;;;;48.20;32.33;;;6.00;99.90;;;;;;4885666;29;21016;-78
2021/11/25 08:40:08;;;;;;;44.23;31.60;;;6.00;99.90;;;;;;4885116;29;20867;-78
2021/11/25 08:42:37;;;;;;;43.63;30.87;;;6.00;99.90;;;;;;4886514;29;20788;-78
2021/11/25 08:45:07;;;;;;;46.27;30.93;;;6.10;99.90;;;;;;4889891;29;20885;-78
2021/11/25 08:47:36;;;;;;;47.40;31.40;;;6.10;99.90;;;;;;4888562;29;20319;-79
2021/11/25 08:50:08;;;;;;;46.37;31.53;;;6.20;99.90;;;;;;4890570;29;20272;-78
2021/11/25 08:52:36;;;;;;;51.03;31.83;;;6.20;99.90;;;;;;4889350;29;20576;-79
2021/11/25 08:55:05;;;;;;;51.20;32.03;;;6.20;99.90;;;;;;4889354;29;20838;-79
2021/11/25 08:57:34;;;;;;;47.53;32.37;;;6.20;99.90;;;;;;4889923;29;20261;-79
2021/11/25 09:00:03;;;;;;;48.33;32.57;;;6.20;99.90;;;;;;4880793;29;20240;-78
2021/11/25 09:02:35;;;;;;;49.93;32.47;;;6.20;99.90;;;;;;4889149;29;20944;-78
2021/11/25 09:05:07;;;;;;;47.83;31.70;;;6.30;99.90;;;;;;4889102;29;20744;-79
2021/11/25 09:07:35;;;;;;;48.17;31.77;;;6.30;99.90;;;;;;4891100;29;20348;-79
2021/11/25 09:10:04;;;;;;;47.27;31.67;;;6.30;99.90;;;;;;4889461;29;20504;-79
2021/11/25 09:12:33;;;;;;;49.03;31.77;;;6.30;99.90;;;;;;4893829;29;20279;-79
2021/11/25 09:15:16;;;;;;;50.87;33.10;;;6.30;99.90;;;;;;4884636;29;20240;-78
2021/11/25 09:17:45;;;;;;;47.67;31.73;;;6.30;99.90;;;;;;4888111;29;20296;-79
2021/11/25 09:20:30;;;;;;;46.90;32.27;;;6.30;99.90;;;;;;4888620;29;20316;-79
2021/11/25 09:23:00;;;;;;;46.23;30.43;;;6.40;99.90;;;;;;4888622;29;20811;-80
2021/11/25 09:25:28;;;;;;;49.97;32.70;;;6.40;99.90;;;;;;4889108;29;20248;-78
2021/11/25 09:27:56;;;;;;;50.57;32.90;;;6.40;99.90;;;;;;4889575;29;20261;-79
2021/11/25 09:30:25;;;;;;;45.70;32.50;;;6.50;99.90;;;;;;4887759;29;20248;-79
2021/11/25 09:32:53;;;;;;;45.10;31.33;;;6.50;99.90;;;;;;4872542;29;20284;-79
2021/11/25 09:35:22;;;;;;;46.10;31.43;;;6.50;99.90;;;;;;4889601;29;20529;-79
2021/11/25 09:37:52;;;;;;;47.43;32.83;;;6.60;99.90;;;;;;4889718;29;20489;-78
2021/11/25 09:40:27;;;;;;;46.33;32.13;;;6.60;99.90;;;;;;4887942;29;20491;-80
2021/11/25 09:42:58;;;;;;;48.83;32.70;;;6.70;99.90;;;;;;4874143;29;20240;-78
2021/11/25 09:45:28;;;;;;;46.67;30.83;;;6.70;99.90;;;;;;4889072;29;20439;-78
2021/11/25 09:47:59;;;;;;;45.73;30.73;;;6.70;99.90;;;;;;4889493;29;20741;-79
2021/11/25 09:50:30;;;;;;;47.77;31.50;;;6.80;99.90;;;;;;4886725;29;20736;-80
2021/11/25 09:53:02;;;;;;;44.77;30.03;;;6.80;99.90;;;;;;4872189;29;20670;-79
2021/11/25 09:55:30;;;;;;;44.17;29.53;;;6.90;99.90;;;;;;4888914;29;20249;-79
2021/11/25 09:57:59;;;;;;;46.13;31.13;;;6.90;99.90;;;;;;4897934;29;20486;-78
2021/11/25 10:00:29;;;;;;;46.73;31.57;;;6.90;99.90;;;;;;4888977;29;20710;-78
2021/11/25 10:02:57;;;;;;;45.70;30.63;;;6.80;99.90;;;;;;4888728;29;20273;-79
2021/11/25 10:05:26;;;;;;;46.43;31.50;;;6.80;99.90;;;;;;4890462;29;20245;-78
2021/11/25 10:07:54;;;;;;;44.97;31.00;;;6.80;99.90;;;;;;4891613;29;20718;-78
2021/11/25 10:10:28;;;;;;;48.40;31.53;;;6.80;99.90;;;;;;4887555;29;20245;-80
2021/11/25 10:12:59;;;;;;;46.30;30.73;;;6.80;99.90;;;;;;4888480;29;20261;-79
2021/11/25 10:15:33;;;;;;;48.10;31.93;;;6.80;99.90;;;;;;4888979;29;20493;-78
2021/11/25 10:18:03;;;;;;;49.67;32.17;;;6.90;99.90;;;;;;4888945;29;20237;-79
2021/11/25 10:20:34;;;;;;;46.40;31.13;;;6.90;99.90;;;;;;4888284;29;20642;-79
2021/11/25 10:23:22;;;;;;;50.80;31.73;;;6.90;99.90;;;;;;4888158;29;20737;-79
2021/11/25 10:25:56;;;;;;;45.40;31.57;;;6.90;99.90;;;;;;4888184;29;20265;-79
2021/11/25 10:28:34;;;;;;;47.67;32.23;;;6.80;99.90;;;;;;4887903;29;20324;-79
2021/11/25 10:31:07;;;;;;;46.57;31.53;;;6.80;99.90;;;;;;4887192;29;20357;-80
2021/11/25 10:33:43;;;;;;;46.70;31.47;;;6.70;99.90;;;;;;4888089;29;20264;-79
2021/11/25 10:39:12;;;;;;;49.53;32.23;;;6.80;99.90;;;;;;4886900;29;20257;-79
2021/11/25 10:41:47;;;;;;;51.43;31.97;;;6.70;99.90;;;;;;4887919;29;21045;-78
2021/11/25 10:44:19;;;;;;;46.43;32.47;;;6.70;99.90;;;;;;4887585;29;20757;-80
2021/11/25 10:46:55;;;;;;;50.90;32.30;;;6.70;99.90;;;;;;4895843;29;20236;-78
2021/11/25 10:49:36;;;;;;;52.83;33.40;;;6.70;99.90;;;;;;4886660;29;20245;-78
2021/11/25 10:52:14;;;;;;;52.40;32.43;;;6.60;99.90;;;;;;4882219;29;20245;-79
2021/11/25 10:54:49;;;;;;;49.57;32.90;;;6.70;99.90;;;;;;4886426;29;20232;-79
2021/11/25 10:57:20;;;;;;;53.20;32.93;;;6.60;99.90;;;;;;4888122;29;20694;-78
2021/11/25 10:59:51;;;;;;;50.27;33.20;;;6.60;99.90;;;;;;4886916;29;20264;-79
2021/11/25 11:02:22;;;;;;;54.77;33.83;;;6.60;99.90;;;;;;4877304;29;20249;-79
2021/11/25 11:04:51;;;;;;;50.77;32.63;;;6.60;99.90;;;;;;4887013;29;20244;-78
2021/11/25 11:07:25;;;;;;;54.03;32.67;;;6.60;99.90;;;;;;4888475;29;20245;-79
2021/11/25 11:09:54;;;;;;;53.10;33.40;;;6.60;99.90;;;;;;4887451;29;20296;-78
2021/11/25 11:12:30;;;;;;;49.00;32.40;;;6.70;99.90;;;;;;4885531;29;20249;-78
2021/11/25 11:15:12;;;;;;;50.13;31.70;;;6.70;99.90;;;;;;4881581;29;20233;-79
2021/11/25 11:17:59;;;;;;;48.47;31.53;;;6.70;99.90;;;;;;4886714;29;20248;-79
2021/11/25 11:20:29;;;;;;;45.67;30.57;;;6.70;99.90;;;;;;4886658;29;20601;-78
2021/11/25 11:22:59;;;;;;;45.87;30.93;;;6.70;99.90;;;;;;4872088;29;20343;-78
2021/11/25 11:25:29;;;;;;;47.73;29.27;;;6.70;99.90;;;;;;4873934;29;20679;-78
2021/11/25 11:28:00;;;;;;;44.30;28.60;;;6.70;99.90;;;;;;4872946;29;20714;-79
2021/11/25 11:30:28;;;;;;;45.47;29.80;;;6.70;99.90;;;;;;4873166;29;20372;-78
2021/11/25 11:32:57;;;;;;;42.43;27.93;;;6.60;99.90;;;;;;4870722;29;20967;-78
2021/11/25 11:35:26;;;;;;;43.07;29.00;;;6.60;99.90;;;;;;4872245;29;21169;-78
2021/11/25 11:37:58;;;;;;;44.77;29.13;;;6.60;99.90;;;;;;4873072;29;20316;-78
2021/11/25 11:40:28;;;;;;;44.03;29.87;;;6.60;99.90;;;;;;4873707;29;20993;-77
2021/11/25 11:43:00;;;;;;;41.23;28.73;;;6.60;99.90;;;;;;4869845;29;21095;-77
2021/11/25 11:45:29;;;;;;;46.63;29.90;;;6.60;99.90;;;;;;4873421;29;21128;-78
2021/11/25 11:48:00;;;;;;;47.27;31.23;;;6.60;99.90;;;;;;4873518;29;20324;-78
2021/11/25 11:50:32;;;;;;;45.77;30.37;;;6.70;99.90;;;;;;4873025;29;21006;-78
2021/11/25 11:53:02;;;;;;;45.00;29.00;;;6.60;99.90;;;;;;4869083;29;20990;-78
2021/11/25 11:55:37;;;;;;;46.13;29.73;;;6.70;99.90;;;;;;4872382;29;20348;-78
2021/11/25 11:58:26;;;;;;;40.73;29.17;;;6.70;99.90;;;;;;4872607;29;20736;-78
2021/11/25 12:00:56;;;;;;;45.47;30.73;;;6.80;99.90;;;;;;4872902;29;20257;-79
2021/11/25 12:03:42;;;;;;;43.73;29.43;;;6.70;99.90;;;;;;4868409;29;20245;-79
2021/11/25 12:06:11;;;;;;;47.60;29.97;;;6.80;99.90;;;;;;4873444;29;20248;-79
2021/11/25 12:08:41;;;;;;;42.27;27.80;;;6.80;99.90;;;;;;4872927;29;20248;-78
2021/11/25 12:11:18;;;;;;;42.60;28.37;;;6.80;99.90;;;;;;4873025;29;20248;-77
2021/11/25 12:14:09;;;;;;;42.97;28.87;;;6.80;99.90;;;;;;4869246;29;20244;-79
2021/11/25 12:16:40;;;;;;;40.13;26.97;;;6.70;99.90;;;;;;4872850;29;20252;-78
2021/11/25 12:19:10;;;;;;;39.87;26.57;;;6.80;99.90;;;;;;4873310;29;20599;-79
2021/11/25 12:21:43;;;;;;;42.30;28.60;;;6.80;99.90;;;;;;4871716;29;20264;-78
2021/11/25 12:24:21;;;;;;;42.77;28.00;;;6.90;99.90;;;;;;4870196;29;20363;-78
2021/11/25 12:27:34;;;;;;;38.37;25.47;;;6.80;99.90;;;;;;4873106;29;21010;-79
2021/11/25 12:30:13;;;;;;;43.80;27.67;;;6.90;99.90;;;;;;4879665;29;20245;-79
2021/11/25 12:32:55;;;;;;;44.17;27.93;;;6.90;99.90;;;;;;4879033;29;20249;-79
2021/11/25 12:35:45;;;;;;;47.17;28.00;;;6.90;99.90;;;;;;4880798;29;20252;-77
2021/11/25 12:38:21;;;;;;;37.40;25.23;;;6.80;99.90;;;;;;4882397;29;20253;-78
2021/11/25 12:41:00;;;;;;;41.83;28.27;;;6.90;99.90;;;;;;4878600;29;20271;-78
2021/11/25 12:43:32;;;;;;;39.90;27.03;;;7.00;99.90;;;;;;4889719;29;20240;-78
2021/11/25 12:46:07;;;;;;;40.93;26.83;;;7.00;99.90;;;;;;4894493;29;20335;-78
2021/11/25 12:48:38;;;;;;;37.40;26.20;;;7.00;99.90;;;;;;4889189;29;20295;-78
2021/11/25 12:51:10;;;;;;;43.63;27.03;;;7.00;99.90;;;;;;4891967;29;20305;-78
2021/11/25 12:53:41;;;;;;;41.17;26.43;;;7.00;99.90;;;;;;4881406;29;20249;-79
2021/11/25 12:56:15;;;;;;;38.13;25.30;;;7.00;99.90;;;;;;4876206;29;20724;-78
2021/11/25 12:58:56;;;;;;;40.13;26.57;;;7.10;99.90;;;;;;4879901;29;20325;-78
2021/11/25 13:01:31;;;;;;;40.47;26.23;;;7.10;99.90;;;;;;4875140;29;20249;-78